Time;durP1;ratioP1;P1;durP2;ratioP2;P2;SDS_P1;SDS_P2;PMS_P1;PMS_P2;Temp;Humidity;BMP_temperature;BMP_pressure;BME280_temperature;BME280_humidity;BME280_pressure;Samples;Min_cycle;Max_cycle;Signal;HPM_P1;HPM_P2
2021/04/25 00:00:15;;;;;;;86.53;43.07;;;;;;;6.62;61.35;99349.70;113582;1200;64449;-80
2021/04/25 00:03:02;;;;;;;82.17;42.70;;;;;;;6.59;61.24;99345.41;113565;1200;64461;-80
2021/04/25 00:05:29;;;;;;;74.40;41.30;;;;;;;6.55;61.00;99341.16;113626;1200;64455;-81
2021/04/25 00:07:56;;;;;;;76.13;41.77;;;;;;;6.52;61.21;99342.16;113737;1199;64393;-80
2021/04/25 00:10:22;;;;;;;83.30;42.50;;;;;;;6.48;61.23;99340.59;113844;1199;64372;-81
2021/04/25 00:12:49;;;;;;;87.87;44.90;;;;;;;6.44;61.56;99338.14;113827;1199;64327;-80
2021/04/25 00:15:28;;;;;;;64.80;36.40;;;;;;;6.36;61.77;99341.13;113909;1200;64531;-81
2021/04/25 00:17:54;;;;;;;61.05;36.05;;;;;;;6.31;61.91;99343.12;113750;1199;64378;-80
2021/04/25 00:20:22;;;;;;;71.07;39.90;;;;;;;6.26;61.97;99335.38;113571;1200;64461;-80
2021/04/25 00:22:50;;;;;;;57.53;36.20;;;;;;;6.25;62.49;99343.40;113591;1199;64404;-80
2021/04/25 00:25:16;;;;;;;65.23;37.30;;;;;;;6.22;62.53;99341.74;113579;1199;64384;-81
2021/04/25 00:27:44;;;;;;;60.10;36.60;;;;;;;6.17;62.75;99334.94;113687;1200;64391;-80
2021/04/25 00:30:15;;;;;;;56.37;34.83;;;;;;;6.14;62.98;99330.63;113600;1200;64407;-80
2021/04/25 00:32:42;;;;;;;55.47;34.77;;;;;;;6.11;62.96;99328.13;113569;1199;64458;-80
2021/04/25 00:35:10;;;;;;;56.40;34.93;;;;;;;6.09;62.79;99325.53;113539;1200;64407;-80
2021/04/25 00:37:37;;;;;;;63.97;36.33;;;;;;;6.09;62.66;99322.89;113545;1199;64487;-80
2021/04/25 00:40:06;;;;;;;60.53;34.50;;;;;;;6.07;62.92;99318.59;113560;1200;65562;-80
2021/04/25 00:42:33;;;;;;;56.83;34.00;;;;;;;6.06;62.84;99324.81;113602;1199;64404;-80
2021/04/25 00:45:04;;;;;;;60.67;33.97;;;;;;;6.01;63.10;99327.66;113571;1200;64317;-80
2021/04/25 00:47:30;;;;;;;55.20;33.00;;;;;;;5.97;63.37;99320.77;113603;1199;64419;-80
2021/04/25 00:49:57;;;;;;;55.00;33.33;;;;;;;5.91;63.73;99327.14;113546;1200;64464;-81
2021/04/25 00:52:24;;;;;;;60.50;36.00;;;;;;;5.83;64.13;99328.41;113553;1200;64391;-81
2021/04/25 00:54:51;;;;;;;60.77;37.27;;;;;;;5.74;64.07;99327.02;113576;1200;64366;-80
2021/04/25 00:57:20;;;;;;;57.93;36.83;;;;;;;5.70;64.26;99328.91;113599;1199;64352;-81
2021/04/25 00:59:48;;;;;;;56.23;34.87;;;;;;;5.71;64.07;99327.12;113633;1200;64468;-80
2021/04/25 01:02:15;;;;;;;57.95;34.00;;;;;;;5.73;64.01;99325.28;113648;1199;64371;-82
2021/04/25 01:04:41;;;;;;;51.75;34.20;;;;;;;5.74;64.10;99327.02;113718;1199;64388;-82
2021/04/25 01:07:08;;;;;;;58.10;35.70;;;;;;;5.76;64.26;99321.64;113714;1199;64380;-81
2021/04/25 01:09:35;;;;;;;52.90;33.95;;;;;;;5.75;63.95;99312.86;113703;1200;64359;-81
2021/04/25 01:12:02;;;;;;;57.20;35.37;;;;;;;5.78;63.86;99312.72;113774;1200;64269;-81
2021/04/25 01:14:30;;;;;;;59.20;35.53;;;;;;;5.81;64.07;99311.73;113672;1199;64561;-80
2021/04/25 01:16:57;;;;;;;89.85;42.90;;;;;;;5.82;63.87;99314.33;113653;1199;64560;-82
2021/04/25 01:19:23;;;;;;;68.33;38.83;;;;;;;5.85;63.89;99315.98;113637;1200;64352;-81
2021/04/25 01:21:50;;;;;;;58.33;36.43;;;;;;;5.87;64.20;99314.99;113574;1199;64352;-81
2021/04/25 01:24:17;;;;;;;65.15;36.65;;;;;;;5.86;64.65;99320.33;113563;1200;64398;-81
2021/04/25 01:26:43;;;;;;;65.60;38.40;;;;;;;5.83;64.68;99309.89;113572;1199;64458;-81
2021/04/25 01:29:10;;;;;;;76.97;41.63;;;;;;;5.84;64.71;99312.45;113579;1200;64349;-81
2021/04/25 01:31:36;;;;;;;69.30;38.43;;;;;;;5.84;64.90;99306.31;113672;1200;64372;-80
2021/04/25 01:34:03;;;;;;;70.50;40.60;;;;;;;5.82;65.21;99318.73;113739;1200;64359;-80
2021/04/25 01:36:30;;;;;;;71.55;40.50;;;;;;;5.77;65.22;99308.38;113626;1200;64479;-81
2021/04/25 01:38:57;;;;;;;60.20;37.70;;;;;;;5.76;65.41;99305.78;113645;1200;64461;-79
2021/04/25 01:41:23;;;;;;;66.30;39.60;;;;;;;5.72;65.54;99305.91;113525;1200;64407;-80
2021/04/25 01:43:50;;;;;;;56.67;37.23;;;;;;;5.68;65.92;99306.09;113526;1200;64423;-80
2021/04/25 01:46:17;;;;;;;61.03;36.07;;;;;;;5.58;65.85;99308.29;113535;1199;64378;-79
2021/04/25 01:48:43;;;;;;;51.57;35.33;;;;;;;5.55;66.03;99302.25;113496;1200;64327;-80
2021/04/25 01:51:11;;;;;;;56.57;34.03;;;;;;;5.49;66.23;99303.36;113459;1200;64359;-80
2021/04/25 01:53:38;;;;;;;52.20;33.00;;;;;;;5.47;66.37;99297.27;113509;1200;64509;-80
2021/04/25 01:56:05;;;;;;;56.87;34.57;;;;;;;5.45;66.26;99304.40;113563;1200;64345;-81
2021/04/25 01:58:31;;;;;;;55.00;36.45;;;;;;;5.46;66.40;99293.78;113693;1199;64356;-80
2021/04/25 02:00:58;;;;;;;57.40;37.30;;;;;;;5.50;66.34;99294.50;113610;1200;64356;-80
2021/04/25 02:03:26;;;;;;;57.95;38.20;;;;;;;5.52;66.40;99291.80;113685;1199;64443;-80
2021/04/25 02:05:53;;;;;;;60.00;40.40;;;;;;;5.52;66.65;99290.02;113616;1200;64509;-79
2021/04/25 02:08:20;;;;;;;64.00;44.93;;;;;;;5.50;66.51;99295.39;113582;1199;64442;-80
2021/04/25 02:10:49;;;;;;;58.37;39.33;;;;;;;5.48;66.70;99293.73;113547;1200;64355;-80
2021/04/25 02:13:17;;;;;;;59.13;40.70;;;;;;;5.46;66.61;99295.56;113595;1200;64359;-80
2021/04/25 02:15:44;;;;;;;64.83;39.73;;;;;;;5.40;66.75;99288.75;113642;1200;64465;-80
2021/04/25 02:18:11;;;;;;;61.67;40.00;;;;;;;5.34;66.81;99282.84;113521;1200;64465;-80
2021/04/25 02:20:39;;;;;;;74.03;45.60;;;;;;;5.27;66.68;99282.25;113554;1200;64305;-80
2021/04/25 02:23:06;;;;;;;64.80;40.60;;;;;;;5.21;66.88;99278.08;113539;1200;64333;-80
2021/04/25 02:25:33;;;;;;;63.90;40.20;;;;;;;5.14;66.95;99281.88;113496;1199;64401;-80
2021/04/25 02:28:00;;;;;;;64.23;41.87;;;;;;;5.08;67.07;99279.47;113493;1199;64506;-80
2021/04/25 02:30:29;;;;;;;60.80;40.10;;;;;;;5.03;67.18;99281.46;113498;1199;64490;-80
2021/04/25 02:32:56;;;;;;;;;;;;;;;4.98;67.53;99286.06;113570;1206;64381;-80
2021/04/25 02:35:24;;;;;;;65.03;39.83;;;;;;;4.95;67.46;99283.52;113569;1200;64372;-80
2021/04/25 02:37:52;;;;;;;56.00;36.55;;;;;;;4.99;67.86;99282.48;113627;1200;64359;-80
2021/04/25 02:40:22;;;;;;;56.70;37.65;;;;;;;5.00;68.04;99279.80;113514;1200;64378;-80
2021/04/25 02:42:49;;;;;;;61.63;38.18;;;;;;;4.96;68.23;99286.11;113541;1200;64387;-80
2021/04/25 02:45:18;;;;;;;58.20;36.60;;;;;;;4.92;68.30;99287.14;113537;1200;64449;-80
2021/04/25 02:47:48;;;;;;;60.50;40.40;;;;;;;4.86;68.35;99275.97;113651;1199;64308;-81
2021/04/25 02:50:16;;;;;;;72.67;45.10;;;;;;;4.79;68.38;99270.94;113704;1200;64445;-83
2021/04/25 02:52:43;;;;;;;64.13;44.87;;;;;;;4.77;68.17;99271.92;113671;1199;64640;-80
2021/04/25 02:55:11;;;;;;;62.10;42.93;;;;;;;4.74;68.34;99270.25;113595;1199;64542;-81
2021/04/25 02:57:39;;;;;;;65.55;41.85;;;;;;;4.69;68.63;99269.58;113564;1200;64455;-81
2021/04/25 03:00:08;;;;;;;67.20;43.63;;;;;;;4.64;68.60;99270.67;113649;1200;64378;-81
2021/04/25 03:02:36;;;;;;;60.50;39.23;;;;;;;4.62;68.74;99271.57;113583;1200;64458;-81
2021/04/25 03:05:04;;;;;;;66.57;42.93;;;;;;;4.64;68.95;99268.89;113578;1200;64497;-81
2021/04/25 03:07:31;;;;;;;68.70;42.65;;;;;;;4.64;68.97;99266.25;113575;1199;64637;-80
2021/04/25 03:09:57;;;;;;;63.20;41.80;;;;;;;4.61;69.27;99261.95;113553;1200;64362;-80
2021/04/25 03:12:24;;;;;;;62.40;40.30;;;;;;;4.58;69.07;99264.70;113637;1200;64346;-81
2021/04/25 03:14:51;;;;;;;57.57;38.63;;;;;;;4.55;69.25;99258.66;113637;1199;64366;-80
2021/04/25 03:17:17;;;;;;;60.83;40.20;;;;;;;4.53;69.60;99265.77;113558;1200;64416;-81
2021/04/25 03:19:45;;;;;;;62.43;38.70;;;;;;;4.50;69.50;99264.14;113582;1200;64452;-81
2021/04/25 03:22:11;;;;;;;62.53;39.67;;;;;;;4.45;69.56;99263.45;113555;1200;64365;-81
2021/04/25 03:24:38;;;;;;;60.57;40.10;;;;;;;4.39;69.53;99266.30;113644;1199;64407;-81
2021/04/25 03:27:05;;;;;;;54.33;37.30;;;;;;;4.32;69.35;99267.47;113730;1200;64375;-80
2021/04/25 03:29:32;;;;;;;62.55;43.70;;;;;;;4.25;69.54;99266.82;113670;1200;64542;-81
2021/04/25 03:31:58;;;;;;;56.80;37.20;;;;;;;4.20;69.52;99266.13;113738;1200;64385;-83
2021/04/25 03:34:25;;;;;;;57.23;38.30;;;;;;;4.17;69.44;99263.61;113771;1200;64436;-82
2021/04/25 03:36:52;;;;;;;52.23;36.83;;;;;;;4.17;69.74;99261.82;113742;1199;64461;-81
2021/04/25 03:39:18;;;;;;;54.93;37.03;;;;;;;4.18;69.79;99252.98;113703;1200;64451;-82
2021/04/25 03:41:45;;;;;;;56.93;39.53;;;;;;;4.16;69.78;99259.23;113688;1199;64455;-82
2021/04/25 03:44:14;;;;;;;62.33;40.23;;;;;;;4.19;69.66;99256.50;113596;1200;64439;-81
2021/04/25 03:46:43;;;;;;;59.47;38.53;;;;;;;4.23;69.74;99258.09;113818;1200;64435;-83
2021/04/25 03:49:10;;;;;;;60.73;38.28;;;;;;;4.24;69.72;99256.31;113712;1200;64365;-80
2021/04/25 03:51:37;;;;;;;55.75;39.10;;;;;;;4.19;69.77;99261.78;113803;1199;64339;-82
2021/04/25 03:54:05;;;;;;;60.20;39.60;;;;;;;4.15;69.87;99260.16;113661;1200;64454;-81
2021/04/25 03:56:31;;;;;;;60.00;41.50;;;;;;;4.10;69.78;99262.09;113754;1200;64487;-82
2021/04/25 03:59:00;;;;;;;59.45;39.10;;;;;;;4.08;69.96;99263.92;113684;1199;64311;-81
2021/04/25 04:01:27;;;;;;;61.85;39.95;;;;;;;4.04;70.15;99260.55;113673;1200;64397;-81
2021/04/25 04:03:54;;;;;;;56.80;38.23;;;;;;;4.03;70.34;99261.48;113646;1199;64327;-83
2021/04/25 04:06:21;;;;;;;58.63;37.97;;;;;;;4.05;70.73;99269.31;113617;1200;64512;-83
2021/04/25 04:08:47;;;;;;;57.00;39.70;;;;;;;4.06;70.76;99264.00;113696;1200;64494;-81
2021/04/25 04:11:14;;;;;;;57.10;39.75;;;;;;;4.14;70.75;99263.72;113623;1200;64436;-81
2021/04/25 04:13:41;;;;;;;57.60;39.97;;;;;;;4.24;70.76;99266.86;113686;1200;64458;-82
2021/04/25 04:16:08;;;;;;;61.93;41.53;;;;;;;4.31;70.86;99263.09;113581;1200;64352;-81
2021/04/25 04:18:34;;;;;;;63.63;41.03;;;;;;;4.37;70.72;99262.85;113567;1200;64484;-81
2021/04/25 04:21:01;;;;;;;59.20;41.73;;;;;;;4.45;70.50;99268.73;113550;1200;64512;-81
2021/04/25 04:23:27;;;;;;;61.10;40.20;;;;;;;4.52;70.77;99272.83;113623;1200;64365;-81
2021/04/25 04:25:54;;;;;;;67.97;43.13;;;;;;;4.58;70.60;99267.34;113562;1200;64404;-82
2021/04/25 04:28:21;;;;;;;59.55;41.90;;;;;;;4.64;70.81;99271.52;113575;1199;64369;-81
2021/04/25 04:30:47;;;;;;;60.60;39.75;;;;;;;4.72;70.86;99266.81;113691;1200;64564;-81
2021/04/25 04:33:15;;;;;;;59.85;39.45;;;;;;;4.77;70.49;99264.85;113613;1200;64371;-81
2021/04/25 04:35:42;;;;;;;52.67;37.27;;;;;;;4.88;70.54;99274.14;113554;1200;64459;-79
2021/04/25 04:38:08;;;;;;;71.07;40.23;;;;;;;4.99;70.75;99270.14;113510;1199;64426;-81
2021/04/25 04:40:35;;;;;;;58.70;42.05;;;;;;;5.12;70.67;99269.66;113615;1200;64374;-79
2021/04/25 04:43:01;;;;;;;56.80;40.87;;;;;;;5.24;70.47;99277.95;113611;1199;64362;-81
2021/04/25 04:45:28;;;;;;;61.05;42.10;;;;;;;5.38;70.26;99265.95;113578;1200;64410;-80
2021/04/25 04:47:54;;;;;;;60.90;45.10;;;;;;;5.62;69.98;99272.00;113535;1200;64404;-79
2021/04/25 04:50:21;;;;;;;60.90;43.23;;;;;;;5.85;69.73;99273.66;113509;1200;64414;-80
2021/04/25 04:52:49;;;;;;;62.25;44.15;;;;;;;5.96;69.57;99271.44;113497;1200;64413;-80
2021/04/25 04:55:17;;;;;;;63.80;45.15;;;;;;;6.08;69.35;99275.31;113534;1200;64369;-80
2021/04/25 04:57:43;;;;;;;60.73;45.13;;;;;;;6.27;69.23;99272.73;113618;1200;64362;-80
2021/04/25 05:00:11;;;;;;;60.65;44.25;;;;;;;6.40;68.77;99271.25;113536;1200;64480;-80
2021/04/25 05:02:39;;;;;;;54.60;41.10;;;;;;;6.51;68.68;99266.32;113602;1199;64315;-79
2021/04/25 05:05:09;;;;;;;52.00;38.93;;;;;;;6.66;68.26;99271.82;113597;1200;64343;-80
2021/04/25 05:07:36;;;;;;;56.50;39.75;;;;;;;6.71;68.07;99262.73;113491;1200;64371;-80
2021/04/25 05:10:03;;;;;;;60.70;41.50;;;;;;;6.79;68.00;99275.61;113467;1200;64477;-80
2021/04/25 05:12:30;;;;;;;55.83;41.37;;;;;;;6.88;68.03;99271.69;113518;1200;64329;-80
2021/04/25 05:14:56;;;;;;;52.03;38.77;;;;;;;6.97;67.97;99271.24;113528;1200;64464;-80
2021/04/25 05:17:23;;;;;;;49.77;39.30;;;;;;;7.04;67.77;99280.63;113562;1199;64349;-79
2021/04/25 05:19:50;;;;;;;53.20;40.00;;;;;;;7.15;67.46;99273.00;113490;1199;64496;-80
2021/04/25 05:22:16;;;;;;;53.70;38.00;;;;;;;7.23;67.55;99269.98;113506;1200;64355;-80
2021/04/25 05:24:43;;;;;;;47.10;35.80;;;;;;;7.29;67.08;99268.82;113475;1200;64384;-80
2021/04/25 05:27:10;;;;;;;46.27;33.50;;;;;;;7.34;66.97;99278.27;113627;1200;64384;-80
2021/04/25 05:29:36;;;;;;;45.73;34.30;;;;;;;7.44;66.75;99271.57;113541;1200;66037;-80
2021/04/25 05:32:03;;;;;;;48.87;34.40;;;;;;;7.51;66.69;99272.14;113487;1200;64401;-80
2021/04/25 05:34:30;;;;;;;46.45;32.40;;;;;;;7.56;66.38;99275.42;113542;1200;64541;-80
2021/04/25 05:36:56;;;;;;;45.73;32.47;;;;;;;7.61;66.42;99273.41;113562;1200;64368;-81
2021/04/25 05:39:23;;;;;;;41.97;30.83;;;;;;;7.69;66.08;99270.36;113558;1200;64349;-81
2021/04/25 05:41:50;;;;;;;42.90;30.60;;;;;;;7.75;65.77;99269.19;113589;1199;64369;-81
2021/04/25 05:44:16;;;;;;;41.90;27.95;;;;;;;7.77;65.26;99273.48;113560;1199;64400;-81
2021/04/25 05:46:43;;;;;;;40.65;28.95;;;;;;;7.78;65.31;99267.23;113551;1200;64519;-81
2021/04/25 05:49:09;;;;;;;42.23;31.13;;;;;;;7.84;65.00;99274.86;113578;1199;64346;-80
2021/04/25 05:51:36;;;;;;;39.00;28.33;;;;;;;7.87;64.92;99274.73;113668;1200;64375;-80
2021/04/25 05:54:03;;;;;;;39.00;27.70;;;;;;;7.94;64.53;99279.71;113613;1200;64400;-80
2021/04/25 05:56:34;;;;;;;37.27;26.90;;;;;;;8.02;64.30;99266.90;113586;1200;64480;-81
2021/04/25 05:59:01;;;;;;;38.90;26.40;;;;;;;8.10;63.78;99270.86;113569;1200;64308;-80
2021/04/25 06:01:27;;;;;;;35.33;26.80;;;;;;;8.29;63.54;99264.58;113583;1199;64391;-80
2021/04/25 06:03:54;;;;;;;39.03;26.73;;;;;;;8.41;63.00;99260.46;113599;1200;64407;-80
2021/04/25 06:06:21;;;;;;;37.70;26.37;;;;;;;8.50;62.50;99260.80;113623;1199;64356;-80
2021/04/25 06:08:47;;;;;;;36.13;24.90;;;;;;;8.56;62.04;99271.11;113555;1200;64550;-80
2021/04/25 06:11:14;;;;;;;37.90;25.73;;;;;;;8.60;61.83;99262.97;113620;1200;64483;-81
2021/04/25 06:13:42;;;;;;;40.37;28.20;;;;;;;8.66;62.07;99260.85;113634;1200;64391;-80
2021/04/25 06:16:10;;;;;;;35.90;25.73;;;;;;;8.73;61.58;99256.89;113630;1200;64446;-80
2021/04/25 06:18:36;;;;;;;37.23;26.73;;;;;;;8.75;61.02;99262.98;113572;1200;64350;-81
2021/04/25 06:21:03;;;;;;;36.05;24.75;;;;;;;8.86;59.97;99261.54;113560;1200;64391;-80
2021/04/25 06:23:29;;;;;;;35.85;25.65;;;;;;;9.11;60.25;99261.00;113592;1199;64531;-80
2021/04/25 06:25:56;;;;;;;33.13;25.27;;;;;;;9.26;60.52;99261.95;113617;1200;64343;-81
2021/04/25 06:28:27;;;;;;;36.23;25.80;;;;;;;9.32;59.78;99254.48;113713;1200;64358;-81
2021/04/25 06:30:58;;;;;;;38.50;27.55;;;;;;;9.39;59.22;99261.14;113652;1200;64374;-81
2021/04/25 06:33:25;;;;;;;34.83;26.40;;;;;;;9.70;59.20;99256.70;113665;1199;64339;-80
2021/04/25 06:35:52;;;;;;;34.93;25.47;;;;;;;9.86;59.25;99257.49;113754;1200;64486;-81
2021/04/25 06:38:19;;;;;;;34.63;25.33;;;;;;;9.98;58.67;99263.02;113712;1200;64404;-83
2021/04/25 06:40:45;;;;;;;39.23;27.33;;;;;;;9.96;58.30;99255.15;113673;1200;64404;-81
2021/04/25 06:43:12;;;;;;;40.03;27.47;;;;;;;10.05;57.88;99261.71;113743;1199;64349;-82
2021/04/25 06:45:38;;;;;;;39.17;26.67;;;;;;;10.20;57.49;99259.94;113712;1200;64432;-81
2021/04/25 06:48:05;;;;;;;35.80;25.40;;;;;;;10.61;57.08;99260.08;113677;1199;64505;-81
2021/04/25 06:50:33;;;;;;;35.20;27.05;;;;;;;11.20;56.60;99251.84;113678;1200;64757;-83
2021/04/25 06:52:59;;;;;;;32.03;25.43;;;;;;;11.45;56.25;99253.74;113658;1200;64324;-82
2021/04/25 06:55:27;;;;;;;34.43;25.37;;;;;;;11.53;56.36;99263.91;113541;1199;64380;-80
2021/04/25 06:57:54;;;;;;;32.90;24.87;;;;;;;11.43;55.53;99250.34;113552;1199;64359;-80
2021/04/25 07:00:23;;;;;;;32.85;24.90;;;;;;;11.33;54.33;99258.09;113572;1200;64519;-80
2021/04/25 07:02:54;;;;;;;33.05;23.75;;;;;;;11.19;54.70;99255.48;113668;1200;64401;-79
2021/04/25 07:05:23;;;;;;;31.07;24.17;;;;;;;11.15;54.57;99253.96;113668;1199;64407;-80
2021/04/25 07:07:50;;;;;;;32.00;23.23;;;;;;;11.17;54.75;99254.72;113648;1199;64452;-80
2021/04/25 07:10:17;;;;;;;31.47;23.23;;;;;;;11.26;54.87;99262.11;113545;1200;64385;-80
2021/04/25 07:12:44;;;;;;;31.03;22.57;;;;;;;11.39;54.34;99267.50;113598;1199;64496;-80
2021/04/25 07:15:12;;;;;;;32.40;24.10;;;;;;;11.36;53.83;99255.22;113608;1199;64375;-80
2021/04/25 07:17:38;;;;;;;32.95;23.30;;;;;;;11.37;53.44;99256.95;113594;1199;64305;-80
2021/04/25 07:20:07;;;;;;;32.67;22.17;;;;;;;11.39;53.33;99256.83;113639;1200;64366;-80
2021/04/25 07:22:34;;;;;;;27.97;23.20;;;;;;;11.44;53.44;99252.05;113613;1199;64362;-80
2021/04/25 07:25:01;;;;;;;31.13;22.63;;;;;;;11.53;53.19;99258.58;113576;1200;64452;-83
2021/04/25 07:27:27;;;;;;;29.53;23.00;;;;;;;11.50;53.44;99256.96;113629;1199;64398;-81
2021/04/25 07:29:54;;;;;;;32.70;22.80;;;;;;;11.68;53.62;99249.55;113639;1200;64371;-80
2021/04/25 07:32:21;;;;;;;31.43;23.77;;;;;;;11.84;52.50;99254.70;113667;1200;64538;-80
2021/04/25 07:34:47;;;;;;;34.15;24.85;;;;;;;11.86;52.40;99256.34;113685;1200;64352;-81
2021/04/25 07:37:14;;;;;;;29.45;22.35;;;;;;;11.96;52.77;99256.58;113702;1200;64391;-81
2021/04/25 07:39:42;;;;;;;27.40;21.50;;;;;;;12.01;52.26;99248.26;113727;1200;64295;-81
2021/04/25 07:42:11;;;;;;;25.80;20.70;;;;;;;11.96;51.51;99251.23;113658;1199;64308;-80
2021/04/25 07:44:41;;;;;;;24.67;18.00;;;;;;;11.92;51.54;99247.05;113585;1200;64870;-81
2021/04/25 07:47:08;;;;;;;25.33;18.53;;;;;;;11.97;51.63;99246.74;113521;1199;64445;-79
2021/04/25 07:49:35;;;;;;;25.77;18.13;;;;;;;12.13;51.23;99247.39;113774;1200;64506;-80
2021/04/25 07:52:02;;;;;;;21.03;15.80;;;;;;;12.21;49.97;99245.03;113581;1200;64307;-82
2021/04/25 07:54:29;;;;;;;17.90;15.03;;;;;;;12.22;49.00;99245.91;113639;1199;64490;-84
2021/04/25 07:56:57;;;;;;;20.73;15.17;;;;;;;12.36;49.15;99242.27;113836;1199;64323;-90
2021/04/25 07:59:25;;;;;;;19.10;15.17;;;;;;;12.46;47.98;99246.01;114127;1199;64343;-89
2021/04/25 08:01:51;;;;;;;18.87;14.33;;;;;;;12.46;47.86;99243.34;114790;1199;64452;-92
2021/04/25 08:04:18;;;;;;;21.70;14.77;;;;;;;12.63;48.33;99240.30;117186;1165;64337;-95
2021/04/25 08:06:45;;;;;;;20.80;15.43;;;;;;;12.86;48.38;99238.65;115918;1166;64425;-90
2021/04/25 08:09:12;;;;;;;17.03;12.63;;;;;;;13.02;47.07;99232.19;113722;1199;64388;-85
2021/04/25 08:11:39;;;;;;;19.43;14.73;;;;;;;13.11;47.26;99229.70;113938;1199;64381;-87
2021/04/25 08:14:05;;;;;;;20.97;15.27;;;;;;;13.22;46.02;99233.38;113786;1199;64368;-89
2021/04/25 08:16:32;;;;;;;15.73;12.10;;;;;;;13.23;44.98;99232.43;113924;1199;64369;-92
2021/04/25 08:18:59;;;;;;;13.97;11.83;;;;;;;13.21;43.87;99229.01;113936;1199;64452;-87
2021/04/25 08:21:28;;;;;;;15.05;12.05;;;;;;;13.17;44.30;99223.04;113804;1200;64415;-88
2021/04/25 08:23:55;;;;;;;16.15;13.00;;;;;;;13.15;43.75;99232.99;113622;1199;64378;-81
2021/04/25 08:26:24;;;;;;;15.37;11.90;;;;;;;13.36;43.20;99225.23;114709;1165;64449;-91
2021/04/25 08:28:51;;;;;;;12.80;10.60;;;;;;;13.76;43.37;99219.53;114527;1200;64426;-81
2021/04/25 08:31:18;;;;;;;13.30;10.75;;;;;;;13.92;41.13;99222.73;114381;1199;64333;-90
2021/04/25 08:33:44;;;;;;;18.37;11.70;;;;;;;13.71;40.79;99214.52;115034;1200;64394;-94
2021/04/25 08:36:13;;;;;;;15.45;12.15;;;;;;;13.46;42.24;99225.41;114308;1198;64474;-91
2021/04/25 08:38:39;;;;;;;13.23;10.80;;;;;;;13.33;42.69;99210.25;114123;1199;64609;-86
2021/04/25 08:41:06;;;;;;;16.63;13.80;;;;;;;13.18;42.30;99219.38;115428;1199;64414;-94
2021/04/25 08:43:33;;;;;;;15.97;11.33;;;;;;;13.02;42.45;99214.31;115113;1199;64879;-88
2021/04/25 08:46:01;;;;;;;14.80;10.90;;;;;;;12.86;41.50;99221.75;113914;1199;64379;-89
2021/04/25 08:48:29;;;;;;;14.37;10.73;;;;;;;12.58;41.38;99220.20;114975;1198;64305;-92
2021/04/25 08:50:57;;;;;;;14.10;10.00;;;;;;;12.37;41.80;99218.09;114662;1200;64551;-89
2021/04/25 08:53:24;;;;;;;14.30;10.40;;;;;;;12.23;41.58;99220.89;114055;1199;64819;-87
2021/04/25 08:55:50;;;;;;;14.37;10.77;;;;;;;12.11;42.69;99211.91;113799;1199;64302;-91
2021/04/25 08:58:18;;;;;;;13.70;10.35;;;;;;;12.16;43.00;99215.11;113876;1198;64330;-88
2021/04/25 09:00:45;;;;;;;10.33;8.83;;;;;;;12.19;42.51;99212.25;114240;1200;64436;-88
2021/04/25 09:03:12;;;;;;;10.17;8.70;;;;;;;12.14;41.47;99221.52;113848;1199;64391;-89
2021/04/25 09:05:40;;;;;;;11.00;7.60;;;;;;;12.07;41.24;99227.30;114037;1198;64407;-91
2021/04/25 09:08:07;;;;;;;11.23;7.03;;;;;;;11.97;40.36;99220.88;114221;1200;64465;-92
2021/04/25 09:10:37;;;;;;;7.20;6.30;;;;;;;12.00;40.14;99220.66;114598;1199;64371;-90
2021/04/25 09:13:24;;;;;;;6.30;4.50;;;;;;;11.96;38.96;99211.17;115119;1199;64381;-90
2021/04/25 09:15:56;;;;;;;7.63;4.83;;;;;;;11.99;38.88;99212.78;113957;1200;64410;-91
2021/04/25 09:18:33;;;;;;;7.50;5.20;;;;;;;12.00;37.85;99209.98;113833;1199;64378;-92
2021/04/25 09:21:13;;;;;;;7.70;5.53;;;;;;;11.94;37.46;99205.07;113943;1199;64304;-92
2021/04/25 09:23:40;;;;;;;;;;;;;;;12.09;38.94;99205.84;114049;1207;64350;-92
2021/04/25 09:26:09;;;;;;;6.90;5.00;;;;;;;12.21;38.38;99204.11;114153;1198;64374;-89
2021/04/25 09:28:40;;;;;;;7.33;5.03;;;;;;;12.46;37.85;99196.07;116933;1198;64276;-89
2021/04/25 09:31:11;;;;;;;7.73;5.20;;;;;;;12.71;38.31;99194.29;115219;1200;64435;-91
2021/04/25 09:34:08;;;;;;;7.20;5.10;;;;;;;12.96;38.71;99185.34;116006;1199;64456;-89
2021/04/25 09:36:35;;;;;;;6.13;4.90;;;;;;;13.00;37.82;99196.66;116941;1199;63026;-93
2021/04/25 09:39:14;;;;;;;6.50;5.55;;;;;;;12.72;36.82;99204.04;114369;1198;64394;-91
2021/04/25 09:41:41;;;;;;;7.17;4.43;;;;;;;12.40;36.00;99199.19;113915;1200;64442;-92
2021/04/25 09:44:32;;;;;;;6.63;3.83;;;;;;;12.10;35.66;99212.03;113843;1199;64397;-91
2021/04/25 09:47:02;;;;;;;6.13;4.80;;;;;;;11.83;35.40;99207.60;113894;1199;64324;-92
2021/04/25 09:49:35;;;;;;;6.43;3.90;;;;;;;11.76;35.49;99208.98;113915;1199;64371;-92
2021/04/25 09:52:02;;;;;;;5.25;4.10;;;;;;;11.80;34.71;99203.33;113838;1199;64455;-91
2021/04/25 09:54:29;;;;;;;4.60;3.30;;;;;;;11.77;34.38;99202.66;113905;1200;64909;-92
2021/04/25 09:56:55;;;;;;;6.35;3.60;;;;;;;11.76;34.24;99200.97;113868;1199;64432;-92
2021/04/25 09:59:22;;;;;;;3.80;3.33;;;;;;;11.77;32.54;99197.33;113889;1199;64486;-92
2021/04/25 10:01:48;;;;;;;5.20;3.45;;;;;;;11.79;32.95;99211.43;113954;1200;64410;-92
2021/04/25 10:04:35;;;;;;;4.50;3.30;;;;;;;11.91;33.46;99207.96;113951;1200;64439;-92
2021/04/25 10:07:04;;;;;;;5.83;3.73;;;;;;;12.12;34.48;99202.94;113942;1199;64397;-92
2021/04/25 10:09:32;;;;;;;4.43;3.55;;;;;;;12.38;33.70;99201.11;113962;1200;64352;-92
2021/04/25 10:12:00;;;;;;;4.60;4.07;;;;;;;12.49;34.57;99209.20;113909;1199;64438;-90
2021/04/25 10:14:30;;;;;;;6.00;3.90;;;;;;;12.64;33.99;99204.59;113928;1200;64442;-91
2021/04/25 10:16:58;;;;;;;5.27;4.23;;;;;;;12.66;33.56;99202.64;113956;1199;64346;-91
2021/04/25 10:19:25;;;;;;;4.50;4.10;;;;;;;12.66;33.00;99207.98;113922;1199;64470;-90
2021/04/25 10:21:53;;;;;;;4.07;3.67;;;;;;;12.58;33.01;99206.84;114000;1198;64461;-91
2021/04/25 10:24:21;;;;;;;6.83;4.10;;;;;;;12.76;34.83;99207.34;113917;1199;64394;-90
2021/04/25 10:26:59;;;;;;;6.20;4.40;;;;;;;12.95;34.34;99194.31;114026;1199;64378;-89
2021/04/25 10:29:37;;;;;;;7.37;4.13;;;;;;;13.06;34.16;99191.72;113828;1199;64317;-89
2021/04/25 10:32:06;;;;;;;5.00;3.77;;;;;;;13.27;33.92;99197.34;113862;1199;64301;-90
2021/04/25 10:34:33;;;;;;;5.35;3.60;;;;;;;13.54;34.80;99188.19;113829;1199;64458;-90
2021/04/25 10:37:02;;;;;;;4.77;3.50;;;;;;;13.61;34.37;99189.41;113848;1199;64378;-91
2021/04/25 10:39:38;;;;;;;4.15;3.20;;;;;;;13.38;31.06;99183.14;113867;1199;64420;-91
2021/04/25 10:42:17;;;;;;;6.77;3.93;;;;;;;13.13;32.12;99195.63;113855;1198;64500;-91
2021/04/25 10:45:15;;;;;;;;;;;;;;;;;;;;;
2021/04/25 10:47:46;;;;;;;5.10;3.30;;;;;;;13.05;30.34;99192.67;113921;1199;64382;-90
2021/04/25 10:50:13;;;;;;;3.93;3.13;;;;;;;13.15;31.86;99188.34;114300;1199;64372;-91
2021/04/25 10:52:41;;;;;;;4.10;3.30;;;;;;;13.33;31.67;99183.48;113897;1200;64452;-94
2021/04/25 10:55:11;;;;;;;3.90;3.30;;;;;;;13.45;32.77;99189.72;113819;1199;64455;-90
2021/04/25 10:57:53;;;;;;;5.70;3.20;;;;;;;13.62;31.30;99191.13;113905;1199;64382;-90
2021/04/25 11:00:32;;;;;;;4.47;3.40;;;;;;;13.60;30.36;99199.27;113800;1200;64400;-91
2021/04/25 11:03:10;;;;;;;6.60;4.10;;;;;;;13.59;31.29;99194.05;113941;1199;64334;-91
2021/04/25 11:05:43;;;;;;;4.37;3.07;;;;;;;13.57;31.46;99195.98;113893;1199;64353;-91
2021/04/25 11:08:13;;;;;;;4.57;3.70;;;;;;;13.64;31.13;99197.23;113830;1199;64336;-90
2021/04/25 11:10:54;;;;;;;6.07;4.30;;;;;;;13.62;31.20;99196.48;113833;1200;64384;-91
2021/04/25 11:13:44;;;;;;;4.63;3.90;;;;;;;13.59;31.05;99199.41;113925;1200;64420;-92
2021/04/25 11:16:18;;;;;;;5.13;3.83;;;;;;;13.36;32.18;99190.43;115785;1200;62966;-91
2021/04/25 11:18:55;;;;;;;6.53;4.50;;;;;;;13.32;31.94;99194.29;113994;1200;64433;-92
2021/04/25 11:21:35;;;;;;;9.37;5.53;;;;;;;13.17;32.68;99198.95;113837;1199;64529;-92
2021/04/25 11:24:05;;;;;;;6.47;5.40;;;;;;;13.07;33.19;99203.27;113880;1199;64516;-90